Time;durP1;ratioP1;P1;durP2;ratioP2;P2;SDS_P1;SDS_P2;PMS_P1;PMS_P2;Temp;Humidity;BMP_temperature;BMP_pressure;BME280_temperature;BME280_humidity;BME280_pressure;Samples;Min_cycle;Max_cycle;Signal;HPM_P1;HPM_P2
2023/09/22 00:00:19;;;;;;;8.70;4.60;;;;;;;23.89;56.07;101685.63;110504;1254;22810;-58
2023/09/22 00:02:47;;;;;;;7.30;3.80;;;;;;;23.90;55.73;101687.89;110454;1254;22173;-58
2023/09/22 00:05:15;;;;;;;9.50;2.90;;;;;;;23.90;55.51;101691.61;110471;1256;22475;-58
2023/09/22 00:07:43;;;;;;;5.50;2.80;;;;;;;23.70;55.95;101689.70;110443;1254;22369;-58
2023/09/22 00:10:12;;;;;;;3.70;2.20;;;;;;;23.61;56.16;101692.35;110470;1256;22310;-58
2023/09/22 00:12:41;;;;;;;4.50;2.50;;;;;;;23.59;56.20;101691.05;110375;1275;22144;-58
2023/09/22 00:15:10;;;;;;;3.70;2.40;;;;;;;23.71;55.74;101693.67;110453;1254;22176;-60
2023/09/22 00:17:38;;;;;;;2.50;2.30;;;;;;;23.72;55.61;101691.16;110437;1254;22313;-58
2023/09/22 00:20:12;;;;;;;2.30;2.10;;;;;;;23.62;55.85;101699.04;110500;1257;22281;-58
2023/09/22 00:22:41;;;;;;;2.20;2.00;;;;;;;23.57;55.96;101699.87;110488;1272;22360;-58
2023/09/22 00:25:09;;;;;;;3.00;2.30;;;;;;;23.55;56.20;101697.88;110473;1255;22382;-58
2023/09/22 00:27:37;;;;;;;2.90;2.40;;;;;;;23.54;56.24;101697.73;110512;1255;22155;-58
2023/09/22 00:30:10;;;;;;;2.50;2.30;;;;;;;23.55;56.07;101704.46;110487;1269;23097;-58
2023/09/22 00:32:39;;;;;;;2.80;2.10;;;;;;;23.59;55.80;101703.09;110440;1269;23146;-58
2023/09/22 00:35:09;;;;;;;3.30;2.30;;;;;;;23.57;55.62;101700.94;110322;1259;22136;-59
2023/09/22 00:37:37;;;;;;;2.50;2.20;;;;;;;23.62;55.20;101702.37;110523;1256;22385;-58
2023/09/22 00:40:06;;;;;;;2.90;2.40;;;;;;;23.73;54.98;101703.98;110506;1252;22411;-58
2023/09/22 00:42:34;;;;;;;3.60;2.80;;;;;;;23.74;55.01;101698.45;110472;1252;22239;-58
2023/09/22 00:45:02;;;;;;;5.30;2.60;;;;;;;23.74;55.04;101701.09;110442;1254;22334;-58
2023/09/22 00:47:30;;;;;;;3.30;2.60;;;;;;;23.75;55.09;101700.15;110461;1254;22388;-58
2023/09/22 00:49:58;;;;;;;2.70;2.40;;;;;;;23.75;55.37;101698.59;110441;1267;22354;-58
2023/09/22 00:52:25;;;;;;;3.10;2.80;;;;;;;23.74;55.19;101702.68;110200;1260;22990;-57
2023/09/22 00:54:53;;;;;;;3.50;2.40;;;;;;;23.74;55.23;101707.28;110362;1255;22418;-59
2023/09/22 00:57:21;;;;;;;3.00;2.70;;;;;;;23.75;55.33;101708.84;110429;1254;23182;-58
2023/09/22 00:59:49;;;;;;;3.60;3.00;;;;;;;23.62;55.84;101714.45;110533;1252;23286;-58
2023/09/22 01:02:16;;;;;;;2.90;2.30;;;;;;;23.73;55.86;101716.77;110517;1257;22217;-58
2023/09/22 01:04:44;;;;;;;3.30;3.00;;;;;;;23.74;56.23;101717.91;110379;1270;22424;-58
2023/09/22 01:07:12;;;;;;;3.70;3.20;;;;;;;23.76;56.41;101718.19;110434;1256;22124;-58
2023/09/22 01:09:41;;;;;;;3.90;2.80;;;;;;;23.76;56.33;101714.97;110496;1255;22141;-58
2023/09/22 01:12:09;;;;;;;2.70;2.30;;;;;;;23.77;56.43;101715.65;110523;1256;22152;-58
2023/09/22 01:14:37;;;;;;;3.20;2.50;;;;;;;23.76;56.37;101714.61;110547;1253;22291;-58
2023/09/22 01:17:06;;;;;;;2.80;2.60;;;;;;;23.76;56.55;101713.05;110463;1257;22316;-57
2023/09/22 01:19:34;;;;;;;5.00;2.90;;;;;;;23.77;56.84;101714.94;110431;1254;22812;-58
2023/09/22 01:22:04;;;;;;;3.40;3.10;;;;;;;23.79;57.09;101714.42;110172;1257;22439;-58
2023/09/22 01:24:31;;;;;;;3.00;2.70;;;;;;;23.72;57.58;101720.23;110424;1254;22461;-58
2023/09/22 01:26:59;;;;;;;3.70;2.70;;;;;;;23.72;57.86;101719.50;110474;1256;22341;-58
2023/09/22 01:29:26;;;;;;;3.00;2.70;;;;;;;23.71;57.90;101718.30;110473;1258;22397;-58
2023/09/22 01:31:54;;;;;;;2.90;2.70;;;;;;;23.71;57.96;101717.23;110538;1256;22376;-58
2023/09/22 01:34:22;;;;;;;3.70;3.00;;;;;;;23.60;58.55;101719.53;110519;1267;23008;-59
2023/09/22 01:36:49;;;;;;;3.40;3.10;;;;;;;23.47;59.13;101719.61;110325;1256;22941;-58
2023/09/22 01:39:17;;;;;;;3.90;2.90;;;;;;;23.45;59.37;101723.30;110445;1268;22275;-58
2023/09/22 01:41:45;;;;;;;3.90;2.80;;;;;;;23.44;59.34;101722.97;110256;1256;22207;-59
2023/09/22 01:44:12;;;;;;;3.10;2.90;;;;;;;23.48;59.36;101719.90;110464;1268;22296;-59
2023/09/22 01:46:40;;;;;;;3.70;2.60;;;;;;;23.49;59.34;101720.23;110438;1275;22795;-58
2023/09/22 01:49:09;;;;;;;3.20;2.80;;;;;;;23.46;59.52;101723.06;110334;1260;22336;-59
2023/09/22 01:51:38;;;;;;;3.50;2.20;;;;;;;23.48;59.43;101720.10;110428;1257;22781;-59
2023/09/22 01:54:06;;;;;;;3.40;2.90;;;;;;;23.50;59.42;101720.83;110361;1254;22324;-58
2023/09/22 01:56:34;;;;;;;6.50;3.80;;;;;;;23.50;59.26;101721.77;110419;1268;22364;-58
2023/09/22 01:59:02;;;;;;;6.10;3.40;;;;;;;23.47;59.40;101719.10;110415;1270;22135;-58
2023/09/22 02:01:29;;;;;;;5.60;3.60;;;;;;;23.47;59.25;101721.23;110451;1254;22432;-58
2023/09/22 02:03:57;;;;;;;7.20;3.20;;;;;;;23.48;59.21;101719.06;110519;1252;22320;-58
2023/09/22 02:06:25;;;;;;;7.60;3.50;;;;;;;23.49;59.39;101718.11;110466;1269;22397;-58
2023/09/22 02:08:54;;;;;;;6.80;2.90;;;;;;;23.48;59.26;101723.48;110373;1257;22372;-58
2023/09/22 02:11:21;;;;;;;7.50;3.20;;;;;;;23.47;59.21;101725.45;110193;1257;22174;-58
2023/09/22 02:13:49;;;;;;;8.00;3.80;;;;;;;23.47;58.90;101725.29;110353;1254;22435;-58
2023/09/22 02:16:16;;;;;;;5.10;3.10;;;;;;;23.46;58.47;101726.92;110320;1255;23204;-58
2023/09/22 02:18:44;;;;;;;4.20;3.00;;;;;;;23.45;58.35;101725.40;110205;1259;22323;-59
2023/09/22 02:21:14;;;;;;;4.00;2.80;;;;;;;23.44;58.58;101718.55;110242;1271;22323;-58
2023/09/22 02:23:41;;;;;;;3.10;2.50;;;;;;;23.44;58.89;101721.04;110338;1256;22343;-58
2023/09/22 02:26:09;;;;;;;3.20;2.50;;;;;;;23.45;59.06;101723.09;110349;1259;22307;-58
2023/09/22 02:28:37;;;;;;;2.40;2.20;;;;;;;23.46;58.98;101727.48;110310;1259;23149;-58
2023/09/22 02:31:05;;;;;;;3.90;2.80;;;;;;;23.45;59.09;101728.61;110294;1271;22394;-58
2023/09/22 02:33:32;;;;;;;3.50;2.90;;;;;;;23.44;59.01;101727.22;110361;1255;22224;-58
2023/09/22 02:36:04;;;;;;;3.10;2.70;;;;;;;23.44;58.99;101725.66;110258;1258;22182;-58
2023/09/22 02:38:32;;;;;;;5.50;3.00;;;;;;;23.48;58.66;101724.31;110174;1258;22654;-58
2023/09/22 02:41:00;;;;;;;3.20;2.90;;;;;;;23.48;58.68;101725.08;110322;1260;22377;-58
2023/09/22 02:43:28;;;;;;;3.90;2.70;;;;;;;23.44;58.76;101731.10;110526;1258;22360;-58
2023/09/22 02:45:55;;;;;;;3.70;2.80;;;;;;;23.41;58.68;101728.84;110448;1256;22314;-59
2023/09/22 02:48:23;;;;;;;3.40;2.70;;;;;;;23.45;58.66;101725.92;110519;1268;22307;-58
2023/09/22 02:50:51;;;;;;;3.50;3.00;;;;;;;23.52;58.45;101727.08;110439;1255;22161;-57
2023/09/22 02:53:18;;;;;;;3.80;2.80;;;;;;;23.57;58.34;101726.77;110461;1257;22918;-58
2023/09/22 02:55:46;;;;;;;4.70;3.00;;;;;;;23.57;58.32;101729.45;110130;1261;22443;-58
2023/09/22 02:58:14;;;;;;;3.20;2.80;;;;;;;23.57;58.20;101732.30;110155;1261;22384;-58
2023/09/22 03:00:45;;;;;;;3.20;2.60;;;;;;;23.57;58.12;101727.88;110198;1260;22154;-58
2023/09/22 03:03:13;;;;;;;3.10;2.70;;;;;;;23.55;57.93;101728.48;110479;1254;22396;-58
2023/09/22 03:05:41;;;;;;;3.60;3.00;;;;;;;23.55;57.94;101729.02;110463;1257;22398;-58
2023/09/22 03:08:08;;;;;;;4.80;3.10;;;;;;;23.54;57.58;101724.15;110471;1255;22247;-59
2023/09/22 03:10:38;;;;;;;4.60;3.80;;;;;;;23.52;57.48;101726.59;110357;1259;23180;-58
2023/09/22 03:13:06;;;;;;;5.10;3.30;;;;;;;23.50;57.47;101727.77;110438;1254;22167;-58
2023/09/22 03:15:34;;;;;;;4.30;3.40;;;;;;;23.49;57.42;101725.73;110472;1253;22362;-58
2023/09/22 03:18:04;;;;;;;5.50;3.10;;;;;;;23.47;57.48;101728.63;110484;1268;22536;-59
2023/09/22 03:20:31;;;;;;;4.70;3.40;;;;;;;23.47;57.49;101729.73;110465;1255;22324;-58
2023/09/22 03:23:00;;;;;;;4.30;3.40;;;;;;;23.46;57.59;101726.78;110558;1253;22179;-58
2023/09/22 03:25:28;;;;;;;4.30;3.00;;;;;;;23.45;57.66;101727.56;110250;1255;22141;-58
2023/09/22 03:27:55;;;;;;;3.20;2.60;;;;;;;23.43;57.55;101730.48;110444;1257;22340;-58
2023/09/22 03:30:23;;;;;;;3.00;2.80;;;;;;;23.42;57.67;101734.59;110580;1253;22305;-58
2023/09/22 03:32:52;;;;;;;4.20;3.30;;;;;;;23.42;57.82;101733.53;110410;1255;22361;-58
2023/09/22 03:35:21;;;;;;;5.30;2.90;;;;;;;23.43;57.83;101737.05;110368;1255;23098;-57
2023/09/22 03:37:49;;;;;;;4.80;3.60;;;;;;;23.42;57.93;101738.15;110442;1255;22826;-60
2023/09/22 03:40:22;;;;;;;6.90;3.00;;;;;;;23.40;57.93;101740.92;110291;1275;22150;-58
2023/09/22 03:42:50;;;;;;;3.40;3.10;;;;;;;23.40;57.87;101747.48;110520;1270;22133;-57
2023/09/22 03:45:18;;;;;;;5.80;4.20;;;;;;;23.40;57.95;101742.90;110484;1252;22277;-58
2023/09/22 03:47:47;;;;;;;6.90;3.60;;;;;;;23.39;57.81;101745.23;110353;1255;22528;-58
2023/09/22 03:50:15;;;;;;;6.10;3.10;;;;;;;23.41;57.71;101743.70;110135;1258;22385;-58
2023/09/22 03:52:42;;;;;;;5.70;2.90;;;;;;;23.41;57.92;101741.78;110254;1255;22869;-59
2023/09/22 03:55:11;;;;;;;3.80;3.30;;;;;;;23.40;57.99;101740.77;110156;1258;22611;-58
2023/09/22 03:57:40;;;;;;;6.40;3.70;;;;;;;23.40;57.87;101747.15;109328;1262;1002319;-58
2023/09/22 04:00:15;;;;;;;9.40;3.90;;;;;;;23.40;58.11;101748.91;110271;1255;22276;-59
2023/09/22 04:02:44;;;;;;;6.50;3.60;;;;;;;23.40;58.25;101746.58;109980;1264;22909;-58
2023/09/22 04:05:12;;;;;;;4.20;3.20;;;;;;;23.33;58.60;101743.30;109987;1263;22400;-59
2023/09/22 04:07:40;;;;;;;5.30;3.10;;;;;;;23.27;58.85;101745.77;110020;1261;22167;-58
2023/09/22 04:10:08;;;;;;;5.30;2.90;;;;;;;23.28;58.98;101743.58;109796;1267;22319;-58
2023/09/22 04:12:36;;;;;;;3.40;2.90;;;;;;;23.30;58.95;101746.65;110001;1263;22175;-59
2023/09/22 04:15:04;;;;;;;4.00;2.50;;;;;;;23.31;59.17;101746.20;109973;1277;22375;-58
2023/09/22 04:17:32;;;;;;;3.50;2.70;;;;;;;23.32;59.31;101742.63;109929;1265;22359;-59
2023/09/22 04:20:01;;;;;;;5.60;3.50;;;;;;;23.37;59.28;101742.33;109794;1263;22535;-58
2023/09/22 04:22:29;;;;;;;6.00;4.00;;;;;;;23.47;59.00;101740.16;110137;1263;22177;-58
2023/09/22 04:25:01;;;;;;;6.40;3.30;;;;;;;23.50;58.73;101740.84;110168;1256;22342;-58
2023/09/22 04:27:33;;;;;;;9.60;3.60;;;;;;;23.51;58.78;101743.63;110119;1261;22345;-59
2023/09/22 04:30:07;;;;;;;6.40;4.20;;;;;;;23.52;58.62;101744.42;110124;1259;23156;-59
2023/09/22 04:32:36;;;;;;;4.90;3.70;;;;;;;23.53;58.64;101743.36;110156;1261;22388;-59
2023/09/22 04:35:07;;;;;;;3.70;3.30;;;;;;;23.54;58.62;101746.84;110149;1278;23047;-59
2023/09/22 04:37:36;;;;;;;5.40;3.40;;;;;;;23.55;58.61;101745.52;110486;1257;22794;-59
2023/09/22 04:40:09;;;;;;;5.50;3.30;;;;;;;23.56;58.55;101747.23;110454;1255;22453;-59
2023/09/22 04:42:37;;;;;;;5.10;3.10;;;;;;;23.58;58.73;101746.73;110199;1272;22393;-58
2023/09/22 04:45:05;;;;;;;3.10;2.70;;;;;;;23.58;58.68;101741.05;110439;1256;22303;-59
2023/09/22 04:47:33;;;;;;;4.50;3.00;;;;;;;23.61;58.94;101745.69;110466;1260;22141;-59
2023/09/22 04:50:01;;;;;;;2.50;2.30;;;;;;;23.65;58.94;101747.39;110318;1275;22292;-58
2023/09/22 04:52:29;;;;;;;7.90;3.00;;;;;;;23.68;59.33;101749.15;110498;1255;22378;-59
2023/09/22 04:54:56;;;;;;;2.60;2.40;;;;;;;23.71;59.55;101749.88;110477;1255;22448;-59
2023/09/22 04:57:24;;;;;;;2.60;2.40;;;;;;;23.73;59.99;101751.33;110507;1256;22445;-59
2023/09/22 04:59:54;;;;;;;4.00;2.60;;;;;;;23.74;60.48;101749.46;110266;1260;22293;-59
2023/09/22 05:02:21;;;;;;;2.90;2.60;;;;;;;23.77;60.75;101749.85;110559;1253;22430;-58
2023/09/22 05:04:49;;;;;;;3.80;3.00;;;;;;;23.82;60.85;101747.95;110512;1256;23143;-59
2023/09/22 05:07:17;;;;;;;5.20;2.90;;;;;;;23.86;60.91;101742.00;110535;1257;22347;-59
2023/09/22 05:09:45;;;;;;;3.20;2.30;;;;;;;23.89;61.32;101742.56;110500;1252;22816;-58
2023/09/22 05:12:12;;;;;;;2.80;2.50;;;;;;;23.90;61.63;101744.05;110485;1256;22119;-59
2023/09/22 05:14:40;;;;;;;2.50;2.30;;;;;;;23.90;61.77;101742.08;110319;1256;22953;-58
2023/09/22 05:17:07;;;;;;;2.40;2.20;;;;;;;23.93;61.96;101740.69;110314;1255;22171;-59
2023/09/22 05:19:35;;;;;;;2.90;2.60;;;;;;;23.99;61.80;101736.41;110505;1264;22437;-58
2023/09/22 05:22:03;;;;;;;3.00;2.70;;;;;;;24.02;61.89;101732.83;110521;1255;22158;-58
2023/09/22 05:24:31;;;;;;;4.10;2.80;;;;;;;24.10;61.85;101728.65;110487;1256;22430;-58
2023/09/22 05:26:59;;;;;;;2.90;2.60;;;;;;;24.14;61.94;101733.13;110504;1256;22169;-59
2023/09/22 05:29:27;;;;;;;2.90;2.60;;;;;;;24.21;62.05;101735.56;110275;1256;22127;-59
2023/09/22 05:31:54;;;;;;;2.30;2.10;;;;;;;24.29;61.81;101741.35;110480;1255;22261;-59
2023/09/22 05:34:22;;;;;;;2.60;2.40;;;;;;;24.34;61.99;101738.17;110547;1258;22172;-59
2023/09/22 05:36:49;;;;;;;4.10;2.70;;;;;;;24.40;62.01;101740.02;110494;1256;22962;-58
2023/09/22 05:39:17;;;;;;;4.00;2.50;;;;;;;24.48;61.90;101747.48;110495;1268;22308;-59
2023/09/22 05:41:48;;;;;;;4.90;2.40;;;;;;;24.56;61.72;101751.93;110580;1255;22381;-59
2023/09/22 05:44:18;;;;;;;2.80;2.10;;;;;;;24.64;61.65;101753.55;110489;1254;22812;-58
2023/09/22 05:46:46;;;;;;;4.30;2.60;;;;;;;24.71;61.53;101762.00;110523;1256;22325;-59
2023/09/22 05:49:15;;;;;;;2.50;2.20;;;;;;;24.80;61.82;101767.29;110373;1258;22141;-58
2023/09/22 05:51:43;;;;;;;2.10;1.90;;;;;;;24.94;62.01;101768.27;110499;1256;22153;-59
2023/09/22 05:54:11;;;;;;;2.60;2.30;;;;;;;25.09;61.79;101769.95;110438;1269;22153;-58
2023/09/22 05:56:40;;;;;;;4.40;2.20;;;;;;;25.21;60.91;101772.17;110483;1256;22290;-58
2023/09/22 05:59:07;;;;;;;2.50;2.30;;;;;;;25.33;60.00;101780.07;110445;1255;22425;-59
2023/09/22 06:01:37;;;;;;;2.30;2.00;;;;;;;25.42;59.44;101781.58;110166;1258;22101;-59
2023/09/22 06:04:05;;;;;;;2.70;2.00;;;;;;;25.52;58.97;101781.27;110294;1258;22303;-58
2023/09/22 06:06:34;;;;;;;1.80;1.60;;;;;;;25.61;58.61;101781.55;110499;1256;22436;-59
2023/09/22 06:09:01;;;;;;;2.10;1.90;;;;;;;25.70;58.22;101779.14;110461;1256;22429;-58
2023/09/22 06:11:29;;;;;;;2.00;1.80;;;;;;;25.80;57.78;101782.89;110175;1260;353369;-59
2023/09/22 06:13:57;;;;;;;1.80;1.60;;;;;;;25.91;57.27;101781.06;110275;1275;22347;-59
2023/09/22 06:16:25;;;;;;;2.90;2.00;;;;;;;25.99;56.72;101774.99;110574;1253;22386;-59
2023/09/22 06:18:53;;;;;;;4.20;2.00;;;;;;;26.01;56.50;101781.42;110543;1259;23372;-59
2023/09/22 06:21:21;;;;;;;2.10;1.90;;;;;;;26.21;55.50;101781.82;110485;1268;22377;-58
2023/09/22 06:23:49;;;;;;;1.90;1.70;;;;;;;26.34;54.84;101785.64;110428;1257;22298;-59
2023/09/22 06:26:17;;;;;;;2.60;1.90;;;;;;;26.42;54.28;101786.13;110415;1258;22149;-58
2023/09/22 06:28:45;;;;;;;1.90;1.60;;;;;;;26.42;54.23;101787.02;110475;1258;22810;-59
2023/09/22 06:31:13;;;;;;;2.40;2.10;;;;;;;26.51;53.83;101787.96;110524;1256;22168;-59
2023/09/22 06:33:40;;;;;;;1.90;1.70;;;;;;;26.51;53.74;101786.55;110295;1260;22376;-58
2023/09/22 06:36:08;;;;;;;4.00;2.70;;;;;;;26.58;53.47;101784.10;110475;1258;22332;-59
2023/09/22 06:38:36;;;;;;;2.50;1.70;;;;;;;26.65;52.81;101784.64;110536;1256;22950;-59
2023/09/22 06:41:04;;;;;;;3.00;1.80;;;;;;;26.71;52.15;101785.08;110528;1259;23227;-59
2023/09/22 06:43:33;;;;;;;2.70;1.80;;;;;;;26.78;51.60;101793.33;110180;1258;22306;-59
2023/09/22 06:46:03;;;;;;;2.10;1.90;;;;;;;26.85;51.19;101799.96;110459;1259;22309;-58
2023/09/22 06:48:31;;;;;;;2.70;2.10;;;;;;;26.97;50.93;101801.01;110488;1265;23058;-59
2023/09/22 06:50:58;;;;;;;3.90;1.70;;;;;;;27.10;50.71;101803.41;110554;1258;22317;-59
2023/09/22 06:53:28;;;;;;;3.10;1.90;;;;;;;27.18;50.43;101807.98;110525;1259;22409;-57
2023/09/22 06:56:11;;;;;;;2.80;1.90;;;;;;;27.20;50.10;101809.17;110307;1259;22827;-59
2023/09/22 06:58:40;;;;;;;1.60;1.50;;;;;;;27.18;50.03;101808.79;110541;1257;22163;-59
2023/09/22 07:01:09;;;;;;;1.80;1.70;;;;;;;27.17;50.16;101814.23;110557;1256;23197;-59
2023/09/22 07:03:41;;;;;;;2.50;1.60;;;;;;;27.14;50.37;101818.44;110544;1257;22246;-59
2023/09/22 07:06:10;;;;;;;5.60;2.10;;;;;;;27.17;50.37;101815.72;110094;1263;22363;-59
2023/09/22 07:08:38;;;;;;;3.60;1.60;;;;;;;27.26;50.14;101813.90;110471;1272;22380;-59
2023/09/22 07:11:08;;;;;;;3.50;2.00;;;;;;;27.37;49.92;101814.91;110525;1275;22388;-59
2023/09/22 07:13:36;;;;;;;2.20;2.00;;;;;;;27.48;49.71;101815.69;110548;1257;22365;-59
2023/09/22 07:16:04;;;;;;;2.20;1.50;;;;;;;27.60;49.68;101818.14;110491;1257;23114;-60
2023/09/22 07:18:32;;;;;;;3.00;2.00;;;;;;;27.75;49.32;101823.97;110539;1258;22312;-60
2023/09/22 07:21:03;;;;;;;2.10;1.90;;;;;;;27.88;48.96;101829.91;110458;1257;22196;-59
2023/09/22 07:23:30;;;;;;;2.00;1.80;;;;;;;27.98;48.44;101824.12;110248;1261;23111;-59
2023/09/22 07:26:11;;;;;;;2.30;1.50;;;;;;;27.95;48.28;101825.92;110569;1256;22301;-59
2023/09/22 07:28:39;;;;;;;2.00;1.90;;;;;;;27.97;48.07;101827.02;110272;1261;22909;-59
2023/09/22 07:31:14;;;;;;;1.90;1.70;;;;;;;27.98;47.72;101830.35;110561;1258;22874;-59
2023/09/22 07:33:43;;;;;;;2.00;1.80;;;;;;;27.99;47.41;101835.27;110543;1257;22845;-60
2023/09/22 07:36:11;;;;;;;1.90;1.70;;;;;;;28.01;47.45;101833.12;110563;1252;22963;-59
2023/09/22 07:38:39;;;;;;;2.10;1.80;;;;;;;27.97;47.48;101834.89;110524;1254;22366;-57
2023/09/22 07:41:07;;;;;;;3.00;1.80;;;;;;;28.05;47.35;101838.52;110543;1257;22353;-57
2023/09/22 07:43:35;;;;;;;2.80;2.00;;;;;;;28.07;47.43;101833.56;110518;1256;22316;-58
2023/09/22 07:46:06;;;;;;;2.00;1.80;;;;;;;28.07;47.49;101829.48;110289;1271;22324;-59
2023/09/22 07:48:35;;;;;;;1.70;1.60;;;;;;;28.07;47.73;101824.63;110143;1261;22922;-57
2023/09/22 07:51:03;;;;;;;3.70;1.60;;;;;;;28.13;47.72;101826.36;110483;1257;22857;-57
2023/09/22 07:53:31;;;;;;;2.40;1.50;;;;;;;28.29;46.97;101826.85;110548;1258;22314;-57
2023/09/22 07:56:01;;;;;;;4.70;1.70;;;;;;;28.21;47.20;101829.27;110507;1254;23160;-59
2023/09/22 07:58:29;;;;;;;2.30;1.60;;;;;;;28.21;47.39;101831.80;110278;1259;22228;-57
2023/09/22 08:00:59;;;;;;;2.10;1.80;;;;;;;28.09;47.62;101827.86;110546;1258;22412;-58
2023/09/22 08:03:27;;;;;;;2.50;1.60;;;;;;;28.20;47.64;101829.54;110536;1269;21993;-59
2023/09/22 08:05:55;;;;;;;1.50;1.40;;;;;;;28.14;48.03;101830.35;110525;1259;22438;-60
2023/09/22 08:08:24;;;;;;;2.30;1.40;;;;;;;28.13;47.99;101829.35;110475;1276;22392;-59
2023/09/22 08:10:53;;;;;;;2.10;1.50;;;;;;;28.25;47.84;101829.34;110447;1274;22372;-59
2023/09/22 08:13:21;;;;;;;1.60;1.40;;;;;;;28.21;47.68;101825.32;110457;1256;22133;-59
2023/09/22 08:15:49;;;;;;;2.10;1.50;;;;;;;28.18;47.93;101828.07;110520;1274;22427;-58
2023/09/22 08:18:17;;;;;;;2.20;1.50;;;;;;;28.19;47.84;101830.31;110547;1257;22863;-58
2023/09/22 08:20:45;;;;;;;1.30;1.20;;;;;;;28.28;47.59;101831.20;110462;1275;22169;-58
2023/09/22 08:23:12;;;;;;;1.70;1.60;;;;;;;28.38;47.28;101830.21;110273;1263;22763;-58
2023/09/22 08:25:43;;;;;;;1.50;1.40;;;;;;;28.43;46.97;101831.44;110535;1275;22227;-60
2023/09/22 08:28:13;;;;;;;1.60;1.50;;;;;;;28.47;46.81;101831.63;110550;1257;22936;-59
2023/09/22 08:30:41;;;;;;;2.00;1.80;;;;;;;28.50;46.68;101834.79;110553;1256;22849;-59
2023/09/22 08:33:09;;;;;;;1.60;1.30;;;;;;;28.54;46.53;101834.30;110514;1272;22933;-59
2023/09/22 08:35:39;;;;;;;1.60;1.50;;;;;;;28.48;46.92;101838.13;110571;1256;22331;-59
2023/09/22 08:38:24;;;;;;;2.90;1.70;;;;;;;28.51;46.61;101840.98;110535;1257;22150;-59
2023/09/22 08:40:52;;;;;;;1.80;1.50;;;;;;;28.42;46.62;101842.75;110526;1275;22289;-59
2023/09/22 08:43:20;;;;;;;1.80;1.70;;;;;;;28.38;46.70;101838.98;110254;1259;22148;-58
2023/09/22 08:45:48;;;;;;;1.60;1.50;;;;;;;28.38;46.87;101835.27;110571;1275;23051;-58
2023/09/22 08:48:15;;;;;;;1.80;1.60;;;;;;;28.37;46.96;101831.95;110573;1259;22796;-57
2023/09/22 08:50:45;;;;;;;1.60;1.20;;;;;;;28.40;46.82;101831.70;110524;1258;22179;-57
2023/09/22 08:53:12;;;;;;;1.60;1.50;;;;;;;28.41;46.84;101830.48;110581;1258;22361;-60
2023/09/22 08:55:40;;;;;;;2.50;1.70;;;;;;;28.45;46.67;101833.59;110507;1268;22123;-60
2023/09/22 08:58:08;;;;;;;1.70;1.60;;;;;;;28.57;46.55;101825.27;110360;1258;22268;-57
2023/09/22 09:00:35;;;;;;;1.40;1.20;;;;;;;28.60;46.34;101824.16;110499;1257;22997;-57
2023/09/22 09:03:09;;;;;;;2.20;1.50;;;;;;;28.62;46.20;101826.84;110555;1257;22231;-57
2023/09/22 09:05:40;;;;;;;1.60;1.40;;;;;;;28.65;46.26;101827.91;110568;1269;22410;-57
2023/09/22 09:08:12;;;;;;;2.20;1.50;;;;;;;28.66;46.01;101826.36;110431;1256;22318;-58
2023/09/22 09:10:42;;;;;;;1.40;1.30;;;;;;;28.68;45.94;101829.45;110186;1260;22386;-58
2023/09/22 09:13:14;;;;;;;1.60;1.50;;;;;;;28.71;45.75;101832.54;110546;1256;22349;-57
2023/09/22 09:15:47;;;;;;;2.20;1.60;;;;;;;28.75;45.65;101833.86;110263;1260;22410;-59
2023/09/22 09:18:17;;;;;;;1.80;1.60;;;;;;;28.79;45.51;101833.16;110532;1275;22769;-59
2023/09/22 09:20:47;;;;;;;1.90;1.50;;;;;;;28.83;45.55;101834.06;110508;1258;22179;-57
2023/09/22 09:23:17;;;;;;;2.20;1.60;;;;;;;28.92;45.34;101835.13;110167;1261;23228;-57
2023/09/22 09:25:54;;;;;;;6.60;2.10;;;;;;;29.09;45.13;101838.88;110482;1257;22157;-57
2023/09/22 09:28:23;;;;;;;1.50;1.40;;;;;;;28.99;45.17;101838.85;110532;1273;22139;-57
2023/09/22 09:30:54;;;;;;;3.10;1.50;;;;;;;29.00;45.06;101844.45;110142;1261;22409;-57
2023/09/22 09:33:34;;;;;;;2.80;1.40;;;;;;;29.02;45.23;101843.29;110467;1276;23165;-57
2023/09/22 09:36:13;;;;;;;1.80;1.50;;;;;;;29.07;44.81;101839.08;110457;1268;22170;-62
2023/09/22 09:38:42;;;;;;;2.50;1.80;;;;;;;29.09;44.74;101838.01;110518;1269;22177;-60
2023/09/22 09:41:09;;;;;;;1.90;1.50;;;;;;;29.08;44.73;101840.24;110257;1273;22343;-59
2023/09/22 09:43:37;;;;;;;1.90;1.50;;;;;;;29.13;44.47;101840.57;110568;1258;22280;-60
2023/09/22 09:46:06;;;;;;;2.00;1.60;;;;;;;29.24;44.20;101838.61;110082;1275;22395;-60
2023/09/22 09:48:37;;;;;;;1.60;1.50;;;;;;;29.27;44.28;101840.85;110236;1269;23111;-58
2023/09/22 09:51:04;;;;;;;2.80;1.40;;;;;;;29.17;44.33;101835.76;110526;1269;23338;-58
2023/09/22 09:53:44;;;;;;;2.10;1.60;;;;;;;29.09;44.61;101838.42;110304;1275;22838;-59
2023/09/22 09:56:13;;;;;;;1.50;1.40;;;;;;;29.07;44.66;101837.86;110570;1256;22307;-57
2023/09/22 09:58:41;;;;;;;2.20;1.50;;;;;;;29.07;45.04;101837.15;110242;1275;22358;-57
2023/09/22 10:01:09;;;;;;;2.40;1.50;;;;;;;29.08;44.83;101842.77;110574;1268;22196;-58
2023/09/22 10:03:39;;;;;;;1.70;1.60;;;;;;;29.09;44.71;101845.36;110236;1274;22137;-57
2023/09/22 10:06:16;;;;;;;1.70;1.60;;;;;;;29.09;44.82;101847.11;110543;1271;22300;-58
2023/09/22 10:08:44;;;;;;;2.60;1.50;;;;;;;29.18;44.67;101848.38;110529;1273;23082;-58
2023/09/22 10:11:13;;;;;;;1.80;1.70;;;;;;;29.22;44.41;101842.11;110483;1269;22244;-58
2023/09/22 10:13:40;;;;;;;2.00;1.80;;;;;;;29.24;44.26;101840.15;110147;1275;23111;-57
2023/09/22 10:16:08;;;;;;;2.70;1.50;;;;;;;29.26;44.26;101841.47;110436;1269;22312;-57
2023/09/22 10:18:45;;;;;;;1.70;1.60;;;;;;;29.28;44.31;101838.39;110292;1269;22192;-58
2023/09/22 10:21:28;;;;;;;3.00;1.90;;;;;;;29.38;44.04;101837.41;110499;1269;23057;-57
2023/09/22 10:24:15;;;;;;;3.20;1.80;;;;;;;29.30;43.92;101835.55;110564;1268;23152;-58
2023/09/22 10:26:55;;;;;;;2.10;1.80;;;;;;;29.15;44.11;101831.64;110199;1276;22112;-58
2023/09/22 10:29:33;;;;;;;2.40;1.40;;;;;;;29.13;44.40;101830.00;110541;1259;22849;-60
2023/09/22 10:32:16;;;;;;;1.60;1.50;;;;;;;29.14;44.31;101832.10;110462;1258;22220;-57
2023/09/22 10:34:47;;;;;;;2.60;1.50;;;;;;;29.16;44.24;101830.00;110485;1273;22190;-58
2023/09/22 10:37:16;;;;;;;1.60;1.50;;;;;;;29.16;44.16;101826.89;110480;1268;22298;-57
2023/09/22 10:39:56;;;;;;;1.90;1.80;;;;;;;29.18;44.02;101829.29;110458;1268;22227;-58
2023/09/22 10:42:25;;;;;;;1.70;1.60;;;;;;;29.19;44.08;101831.67;110450;1272;22243;-57
2023/09/22 10:44:58;;;;;;;1.60;1.50;;;;;;;29.20;44.29;101831.27;110289;1275;23016;-58
2023/09/22 10:47:43;;;;;;;2.30;2.10;;;;;;;29.21;44.30;101829.91;110543;1271;22350;-59
2023/09/22 10:50:19;;;;;;;2.00;1.70;;;;;;;29.24;44.14;101825.59;110557;1268;23114;-57
2023/09/22 10:53:06;;;;;;;1.60;1.50;;;;;;;29.23;44.15;101828.80;110207;1273;22551;-58
2023/09/22 10:55:41;;;;;;;2.50;1.70;;;;;;;29.29;43.99;101822.45;110464;1273;22149;-57
2023/09/22 10:58:21;;;;;;;2.10;1.80;;;;;;;29.25;44.26;101820.05;110514;1269;22162;-58
2023/09/22 11:01:04;;;;;;;1.50;1.40;;;;;;;29.20;44.38;101818.05;110233;1262;22150;-57
2023/09/22 11:03:33;;;;;;;2.10;1.80;;;;;;;29.14;44.66;101815.31;110243;1273;23251;-58
2023/09/22 11:06:06;;;;;;;2.20;1.60;;;;;;;29.25;44.36;101812.60;110493;1257;22352;-57
2023/09/22 11:08:46;;;;;;;3.40;1.60;;;;;;;29.29;44.47;101811.36;110532;1269;22417;-57
2023/09/22 11:11:15;;;;;;;2.40;1.50;;;;;;;29.31;44.50;101809.04;110520;1275;22402;-57
2023/09/22 11:13:53;;;;;;;3.30;1.60;;;;;;;29.32;44.43;101811.85;110516;1268;22354;-57
2023/09/22 11:16:21;;;;;;;2.50;1.90;;;;;;;29.32;44.17;101809.64;110468;1273;22370;-59
2023/09/22 11:18:49;;;;;;;1.90;1.80;;;;;;;29.36;43.99;101807.69;110257;1270;22480;-59
2023/09/22 11:21:16;;;;;;;3.20;1.60;;;;;;;29.39;43.71;101807.60;110444;1275;22380;-58
2023/09/22 11:23:44;;;;;;;3.60;1.60;;;;;;;29.31;44.04;101807.77;110554;1258;22296;-58
2023/09/22 11:26:13;;;;;;;2.00;1.70;;;;;;;29.32;44.27;101803.92;110335;1269;22852;-57